sensor_id;sensor_type;location;lat;lon;timestamp;temperature;humidity
41756;DHT22;27435;48.480;9.258;2023-06-26T00:01:59;21.00;66.40
41756;DHT22;27435;48.480;9.258;2023-06-26T00:04:25;20.90;66.80
41756;DHT22;27435;48.480;9.258;2023-06-26T00:06:50;20.90;66.90
41756;DHT22;27435;48.480;9.258;2023-06-26T00:09:16;20.90;66.90
41756;DHT22;27435;48.480;9.258;2023-06-26T00:11:41;20.80;66.90
41756;DHT22;27435;48.480;9.258;2023-06-26T00:14:07;20.80;66.90
41756;DHT22;27435;48.480;9.258;2023-06-26T00:16:32;20.70;67.00
41756;DHT22;27435;48.480;9.258;2023-06-26T00:18:58;20.70;66.50
41756;DHT22;27435;48.480;9.258;2023-06-26T00:21:24;20.80;66.30
41756;DHT22;27435;48.480;9.258;2023-06-26T00:23:51;20.80;66.40
41756;DHT22;27435;48.480;9.258;2023-06-26T00:26:17;20.90;65.60
41756;DHT22;27435;48.480;9.258;2023-06-26T00:28:42;21.00;65.80
41756;DHT22;27435;48.480;9.258;2023-06-26T00:31:08;21.00;65.90
41756;DHT22;27435;48.480;9.258;2023-06-26T00:33:33;21.00;65.40
41756;DHT22;27435;48.480;9.258;2023-06-26T00:35:59;21.10;65.60
41756;DHT22;27435;48.480;9.258;2023-06-26T00:38:25;21.10;65.50
41756;DHT22;27435;48.480;9.258;2023-06-26T00:40:50;21.10;65.70
41756;DHT22;27435;48.480;9.258;2023-06-26T00:43:16;21.00;66.20
41756;DHT22;27435;48.480;9.258;2023-06-26T00:45:41;20.90;66.70
41756;DHT22;27435;48.480;9.258;2023-06-26T00:48:09;20.80;67.30
41756;DHT22;27435;48.480;9.258;2023-06-26T00:50:37;20.60;67.80
41756;DHT22;27435;48.480;9.258;2023-06-26T00:53:03;20.70;67.60
41756;DHT22;27435;48.480;9.258;2023-06-26T00:55:29;20.60;67.80
41756;DHT22;27435;48.480;9.258;2023-06-26T00:57:55;20.60;68.00
41756;DHT22;27435;48.480;9.258;2023-06-26T01:00:21;20.60;68.40
41756;DHT22;27435;48.480;9.258;2023-06-26T01:02:47;20.50;69.10
41756;DHT22;27435;48.480;9.258;2023-06-26T01:05:13;20.40;69.20
41756;DHT22;27435;48.480;9.258;2023-06-26T01:07:50;20.40;69.30
41756;DHT22;27435;48.480;9.258;2023-06-26T01:10:16;20.30;69.50
41756;DHT22;27435;48.480;9.258;2023-06-26T01:12:42;20.20;70.20
41756;DHT22;27435;48.480;9.258;2023-06-26T01:15:08;20.10;70.40
41756;DHT22;27435;48.480;9.258;2023-06-26T01:17:36;20.00;70.70
41756;DHT22;27435;48.480;9.258;2023-06-26T01:20:05;20.00;70.90
41756;DHT22;27435;48.480;9.258;2023-06-26T01:28:15;19.80;72.60
41756;DHT22;27435;48.480;9.258;2023-06-26T01:30:44;19.60;73.10
41756;DHT22;27435;48.480;9.258;2023-06-26T01:33:12;19.40;73.90
41756;DHT22;27435;48.480;9.258;2023-06-26T01:35:39;19.20;74.40
41756;DHT22;27435;48.480;9.258;2023-06-26T01:40:38;19.20;74.90
41756;DHT22;27435;48.480;9.258;2023-06-26T01:43:05;19.10;74.90
41756;DHT22;27435;48.480;9.258;2023-06-26T01:45:32;19.10;75.30
41756;DHT22;27435;48.480;9.258;2023-06-26T01:47:59;19.00;75.50
41756;DHT22;27435;48.480;9.258;2023-06-26T01:50:28;18.90;76.20
41756;DHT22;27435;48.480;9.258;2023-06-26T01:53:02;18.80;76.20
41756;DHT22;27435;48.480;9.258;2023-06-26T01:58:10;18.70;76.80
41756;DHT22;27435;48.480;9.258;2023-06-26T02:00:36;18.70;77.10
41756;DHT22;27435;48.480;9.258;2023-06-26T02:03:02;18.60;77.10
41756;DHT22;27435;48.480;9.258;2023-06-26T02:05:30;18.60;77.30
41756;DHT22;27435;48.480;9.258;2023-06-26T02:07:56;18.60;77.50
41756;DHT22;27435;48.480;9.258;2023-06-26T02:10:22;18.60;77.40
41756;DHT22;27435;48.480;9.258;2023-06-26T02:12:47;18.60;77.50
41756;DHT22;27435;48.480;9.258;2023-06-26T02:15:13;18.60;77.70
41756;DHT22;27435;48.480;9.258;2023-06-26T02:17:38;18.60;77.50
41756;DHT22;27435;48.480;9.258;2023-06-26T02:20:04;18.60;77.90
41756;DHT22;27435;48.480;9.258;2023-06-26T02:22:31;18.50;78.10
41756;DHT22;27435;48.480;9.258;2023-06-26T02:24:57;18.50;78.20
41756;DHT22;27435;48.480;9.258;2023-06-26T02:27:22;18.50;78.40
41756;DHT22;27435;48.480;9.258;2023-06-26T02:29:48;18.40;78.80
41756;DHT22;27435;48.480;9.258;2023-06-26T02:32:14;18.30;79.00
41756;DHT22;27435;48.480;9.258;2023-06-26T02:34:39;18.30;79.20
41756;DHT22;27435;48.480;9.258;2023-06-26T02:37:05;18.20;79.70
41756;DHT22;27435;48.480;9.258;2023-06-26T02:39:33;18.20;80.00
41756;DHT22;27435;48.480;9.258;2023-06-26T02:41:59;18.10;80.00
41756;DHT22;27435;48.480;9.258;2023-06-26T02:44:24;18.10;80.60
41756;DHT22;27435;48.480;9.258;2023-06-26T02:46:50;18.00;80.90
41756;DHT22;27435;48.480;9.258;2023-06-26T02:49:16;17.80;81.40
41756;DHT22;27435;48.480;9.258;2023-06-26T02:51:41;17.70;82.20
41756;DHT22;27435;48.480;9.258;2023-06-26T02:54:07;17.60;82.80
41756;DHT22;27435;48.480;9.258;2023-06-26T02:56:32;17.50;82.80
41756;DHT22;27435;48.480;9.258;2023-06-26T02:58:58;17.50;82.90
41756;DHT22;27435;48.480;9.258;2023-06-26T03:01:24;17.50;82.90
41756;DHT22;27435;48.480;9.258;2023-06-26T03:03:50;17.50;82.80
41756;DHT22;27435;48.480;9.258;2023-06-26T03:06:15;17.40;83.50
41756;DHT22;27435;48.480;9.258;2023-06-26T03:08:41;17.30;83.40
41756;DHT22;27435;48.480;9.258;2023-06-26T03:11:07;17.10;83.90
41756;DHT22;27435;48.480;9.258;2023-06-26T03:13:35;17.20;84.20
41756;DHT22;27435;48.480;9.258;2023-06-26T03:16:01;17.30;84.60
41756;DHT22;27435;48.480;9.258;2023-06-26T03:18:27;17.30;84.40
41756;DHT22;27435;48.480;9.258;2023-06-26T03:20:53;17.30;84.10
41756;DHT22;27435;48.480;9.258;2023-06-26T03:23:22;17.30;84.30
41756;DHT22;27435;48.480;9.258;2023-06-26T03:25:49;17.20;84.70
41756;DHT22;27435;48.480;9.258;2023-06-26T03:28:14;17.00;85.50
41756;DHT22;27435;48.480;9.258;2023-06-26T03:30:40;17.00;86.00
41756;DHT22;27435;48.480;9.258;2023-06-26T03:33:06;16.80;86.40
41756;DHT22;27435;48.480;9.258;2023-06-26T03:35:31;16.80;86.40
41756;DHT22;27435;48.480;9.258;2023-06-26T03:37:58;16.80;86.30
41756;DHT22;27435;48.480;9.258;2023-06-26T03:40:24;16.70;86.90
41756;DHT22;27435;48.480;9.258;2023-06-26T03:42:49;16.80;87.30
41756;DHT22;27435;48.480;9.258;2023-06-26T03:45:15;16.80;87.10
41756;DHT22;27435;48.480;9.258;2023-06-26T03:47:41;16.90;86.90
41756;DHT22;27435;48.480;9.258;2023-06-26T03:50:07;16.90;86.70
41756;DHT22;27435;48.480;9.258;2023-06-26T03:52:32;16.90;87.20
41756;DHT22;27435;48.480;9.258;2023-06-26T03:54:58;16.80;87.90
41756;DHT22;27435;48.480;9.258;2023-06-26T03:57:24;16.80;88.70
41756;DHT22;27435;48.480;9.258;2023-06-26T03:59:50;16.60;89.30
41756;DHT22;27435;48.480;9.258;2023-06-26T04:02:16;16.70;89.70
41756;DHT22;27435;48.480;9.258;2023-06-26T04:04:41;16.50;89.40
41756;DHT22;27435;48.480;9.258;2023-06-26T04:07:07;16.50;89.40
41756;DHT22;27435;48.480;9.258;2023-06-26T04:09:32;16.70;89.70
41756;DHT22;27435;48.480;9.258;2023-06-26T04:11:58;16.70;89.70
41756;DHT22;27435;48.480;9.258;2023-06-26T04:14:24;16.80;88.90
41756;DHT22;27435;48.480;9.258;2023-06-26T04:16:49;16.70;88.70
41756;DHT22;27435;48.480;9.258;2023-06-26T04:19:15;16.90;88.70
41756;DHT22;27435;48.480;9.258;2023-06-26T04:21:41;17.00;88.10
41756;DHT22;27435;48.480;9.258;2023-06-26T04:24:06;16.90;88.50
41756;DHT22;27435;48.480;9.258;2023-06-26T04:26:32;17.00;88.10
41756;DHT22;27435;48.480;9.258;2023-06-26T04:28:58;17.00;88.90
41756;DHT22;27435;48.480;9.258;2023-06-26T04:31:23;16.80;89.40
41756;DHT22;27435;48.480;9.258;2023-06-26T04:33:49;16.70;89.90
41756;DHT22;27435;48.480;9.258;2023-06-26T04:36:17;16.90;90.10
41756;DHT22;27435;48.480;9.258;2023-06-26T04:38:42;16.90;89.80
41756;DHT22;27435;48.480;9.258;2023-06-26T04:41:08;16.80;89.90
41756;DHT22;27435;48.480;9.258;2023-06-26T04:43:33;16.90;90.00
41756;DHT22;27435;48.480;9.258;2023-06-26T04:45:59;16.90;90.30
41756;DHT22;27435;48.480;9.258;2023-06-26T04:48:25;17.20;89.50
41756;DHT22;27435;48.480;9.258;2023-06-26T04:50:53;17.30;89.60
41756;DHT22;27435;48.480;9.258;2023-06-26T04:53:22;17.40;89.20
41756;DHT22;27435;48.480;9.258;2023-06-26T04:55:49;17.50;88.50
41756;DHT22;27435;48.480;9.258;2023-06-26T04:58:18;17.50;88.90
41756;DHT22;27435;48.480;9.258;2023-06-26T05:00:44;17.70;88.80
41756;DHT22;27435;48.480;9.258;2023-06-26T05:03:12;17.90;88.30
41756;DHT22;27435;48.480;9.258;2023-06-26T05:05:38;18.10;87.50
41756;DHT22;27435;48.480;9.258;2023-06-26T05:08:14;18.10;86.90
41756;DHT22;27435;48.480;9.258;2023-06-26T05:10:40;18.20;86.90
41756;DHT22;27435;48.480;9.258;2023-06-26T05:13:05;18.20;86.00
41756;DHT22;27435;48.480;9.258;2023-06-26T05:15:31;18.40;86.50
41756;DHT22;27435;48.480;9.258;2023-06-26T05:17:57;18.60;85.60
41756;DHT22;27435;48.480;9.258;2023-06-26T05:20:22;18.70;85.60
41756;DHT22;27435;48.480;9.258;2023-06-26T05:22:48;19.00;85.30
41756;DHT22;27435;48.480;9.258;2023-06-26T05:25:15;19.00;84.90
41756;DHT22;27435;48.480;9.258;2023-06-26T05:27:41;19.30;85.20
41756;DHT22;27435;48.480;9.258;2023-06-26T05:30:08;19.70;84.50
41756;DHT22;27435;48.480;9.258;2023-06-26T05:32:34;20.10;83.70
41756;DHT22;27435;48.480;9.258;2023-06-26T05:35:02;20.70;82.70
41756;DHT22;27435;48.480;9.258;2023-06-26T05:37:31;21.40;80.30
41756;DHT22;27435;48.480;9.258;2023-06-26T05:39:57;22.00;78.50
41756;DHT22;27435;48.480;9.258;2023-06-26T05:42:22;22.30;77.10
41756;DHT22;27435;48.480;9.258;2023-06-26T05:44:49;23.50;74.00
41756;DHT22;27435;48.480;9.258;2023-06-26T05:47:15;24.30;70.90
41756;DHT22;27435;48.480;9.258;2023-06-26T05:49:41;25.00;69.90
41756;DHT22;27435;48.480;9.258;2023-06-26T05:52:07;25.20;68.20
41756;DHT22;27435;48.480;9.258;2023-06-26T05:54:33;25.50;67.60
41756;DHT22;27435;48.480;9.258;2023-06-26T05:56:58;26.50;65.10
41756;DHT22;27435;48.480;9.258;2023-06-26T05:59:27;27.10;64.10
41756;DHT22;27435;48.480;9.258;2023-06-26T06:01:54;27.20;62.60
41756;DHT22;27435;48.480;9.258;2023-06-26T06:04:19;26.80;64.10
41756;DHT22;27435;48.480;9.258;2023-06-26T06:06:45;27.50;62.50
41756;DHT22;27435;48.480;9.258;2023-06-26T06:09:11;28.00;61.20
41756;DHT22;27435;48.480;9.258;2023-06-26T06:11:36;28.40;59.60
41756;DHT22;27435;48.480;9.258;2023-06-26T06:14:02;28.60;59.20
41756;DHT22;27435;48.480;9.258;2023-06-26T06:16:28;28.70;58.60
41756;DHT22;27435;48.480;9.258;2023-06-26T06:18:54;28.90;58.10
41756;DHT22;27435;48.480;9.258;2023-06-26T06:21:20;28.90;57.90
41756;DHT22;27435;48.480;9.258;2023-06-26T06:23:46;29.20;57.90
41756;DHT22;27435;48.480;9.258;2023-06-26T06:26:12;29.50;56.40
41756;DHT22;27435;48.480;9.258;2023-06-26T06:28:39;29.80;56.60
41756;DHT22;27435;48.480;9.258;2023-06-26T06:31:04;29.90;56.20
41756;DHT22;27435;48.480;9.258;2023-06-26T06:33:30;30.10;56.10
41756;DHT22;27435;48.480;9.258;2023-06-26T06:35:56;30.20;55.80
41756;DHT22;27435;48.480;9.258;2023-06-26T06:38:21;30.10;57.00
41756;DHT22;27435;48.480;9.258;2023-06-26T06:40:47;30.60;56.20
41756;DHT22;27435;48.480;9.258;2023-06-26T06:43:13;30.90;55.40
41756;DHT22;27435;48.480;9.258;2023-06-26T06:45:38;30.70;56.90
41756;DHT22;27435;48.480;9.258;2023-06-26T06:48:04;30.90;56.90
41756;DHT22;27435;48.480;9.258;2023-06-26T06:50:31;30.90;55.50
41756;DHT22;27435;48.480;9.258;2023-06-26T06:52:56;29.90;54.40
41756;DHT22;27435;48.480;9.258;2023-06-26T06:55:22;29.70;56.40
41756;DHT22;27435;48.480;9.258;2023-06-26T06:57:49;30.60;55.40
41756;DHT22;27435;48.480;9.258;2023-06-26T07:00:16;31.10;52.10
41756;DHT22;27435;48.480;9.258;2023-06-26T07:02:45;31.70;52.10
41756;DHT22;27435;48.480;9.258;2023-06-26T07:05:12;31.80;51.60
41756;DHT22;27435;48.480;9.258;2023-06-26T07:07:38;32.00;50.60
41756;DHT22;27435;48.480;9.258;2023-06-26T07:10:06;31.50;51.10
41756;DHT22;27435;48.480;9.258;2023-06-26T07:12:32;31.60;50.10
41756;DHT22;27435;48.480;9.258;2023-06-26T07:14:57;31.50;50.20
41756;DHT22;27435;48.480;9.258;2023-06-26T07:17:23;31.40;50.70
41756;DHT22;27435;48.480;9.258;2023-06-26T07:19:49;31.00;50.40
41756;DHT22;27435;48.480;9.258;2023-06-26T07:22:15;30.70;52.10
41756;DHT22;27435;48.480;9.258;2023-06-26T07:24:41;30.30;53.50
41756;DHT22;27435;48.480;9.258;2023-06-26T07:27:07;29.80;53.30
41756;DHT22;27435;48.480;9.258;2023-06-26T07:29:32;28.90;54.70
41756;DHT22;27435;48.480;9.258;2023-06-26T07:31:58;28.60;55.30
41756;DHT22;27435;48.480;9.258;2023-06-26T07:34:24;28.40;56.10
41756;DHT22;27435;48.480;9.258;2023-06-26T07:36:49;28.20;56.80
41756;DHT22;27435;48.480;9.258;2023-06-26T07:39:15;27.80;56.70
41756;DHT22;27435;48.480;9.258;2023-06-26T07:41:41;27.50;57.60
41756;DHT22;27435;48.480;9.258;2023-06-26T07:44:06;27.40;58.90
41756;DHT22;27435;48.480;9.258;2023-06-26T07:46:32;27.40;58.50
41756;DHT22;27435;48.480;9.258;2023-06-26T07:48:57;27.40;58.70
41756;DHT22;27435;48.480;9.258;2023-06-26T07:51:23;27.40;58.20
41756;DHT22;27435;48.480;9.258;2023-06-26T07:53:49;27.60;57.40
41756;DHT22;27435;48.480;9.258;2023-06-26T07:56:15;27.70;56.90
41756;DHT22;27435;48.480;9.258;2023-06-26T07:58:40;27.50;57.00
41756;DHT22;27435;48.480;9.258;2023-06-26T08:01:06;27.50;57.10
41756;DHT22;27435;48.480;9.258;2023-06-26T08:03:31;27.50;56.00
41756;DHT22;27435;48.480;9.258;2023-06-26T08:05:57;27.60;56.40
41756;DHT22;27435;48.480;9.258;2023-06-26T08:08:23;27.60;56.70
41756;DHT22;27435;48.480;9.258;2023-06-26T08:10:48;27.70;56.10
41756;DHT22;27435;48.480;9.258;2023-06-26T08:13:14;27.90;55.20
41756;DHT22;27435;48.480;9.258;2023-06-26T08:15:39;27.90;55.60
41756;DHT22;27435;48.480;9.258;2023-06-26T08:18:05;27.90;55.60
41756;DHT22;27435;48.480;9.258;2023-06-26T08:20:31;28.10;55.20
41756;DHT22;27435;48.480;9.258;2023-06-26T08:22:56;28.00;55.30
41756;DHT22;27435;48.480;9.258;2023-06-26T08:25:22;28.00;55.20
41756;DHT22;27435;48.480;9.258;2023-06-26T08:27:47;28.10;54.90
41756;DHT22;27435;48.480;9.258;2023-06-26T08:30:13;28.10;55.30
41756;DHT22;27435;48.480;9.258;2023-06-26T08:32:39;28.20;55.40
41756;DHT22;27435;48.480;9.258;2023-06-26T08:35:06;28.30;54.90
41756;DHT22;27435;48.480;9.258;2023-06-26T08:37:32;28.30;55.10
41756;DHT22;27435;48.480;9.258;2023-06-26T08:39:59;28.40;54.60
41756;DHT22;27435;48.480;9.258;2023-06-26T08:42:25;28.50;55.10
41756;DHT22;27435;48.480;9.258;2023-06-26T08:44:51;28.60;54.70
41756;DHT22;27435;48.480;9.258;2023-06-26T08:47:16;28.80;54.60
41756;DHT22;27435;48.480;9.258;2023-06-26T08:49:51;29.00;54.40
41756;DHT22;27435;48.480;9.258;2023-06-26T08:52:28;29.00;54.10
41756;DHT22;27435;48.480;9.258;2023-06-26T08:54:58;29.20;54.10
41756;DHT22;27435;48.480;9.258;2023-06-26T08:57:26;29.10;53.50
41756;DHT22;27435;48.480;9.258;2023-06-26T08:59:52;29.10;53.80
41756;DHT22;27435;48.480;9.258;2023-06-26T09:02:18;29.20;54.00
41756;DHT22;27435;48.480;9.258;2023-06-26T09:04:47;29.10;53.30
41756;DHT22;27435;48.480;9.258;2023-06-26T09:07:13;29.00;53.60
41756;DHT22;27435;48.480;9.258;2023-06-26T09:09:39;29.10;53.80
41756;DHT22;27435;48.480;9.258;2023-06-26T09:12:05;29.10;52.40
41756;DHT22;27435;48.480;9.258;2023-06-26T09:14:31;29.20;53.10
41756;DHT22;27435;48.480;9.258;2023-06-26T09:16:57;29.40;53.00
41756;DHT22;27435;48.480;9.258;2023-06-26T09:19:23;29.60;52.20
41756;DHT22;27435;48.480;9.258;2023-06-26T09:21:50;29.50;52.70
41756;DHT22;27435;48.480;9.258;2023-06-26T09:24:17;29.40;53.00
41756;DHT22;27435;48.480;9.258;2023-06-26T09:26:42;29.30;53.00
41756;DHT22;27435;48.480;9.258;2023-06-26T09:29:09;29.20;52.60
41756;DHT22;27435;48.480;9.258;2023-06-26T09:31:37;29.20;53.00
41756;DHT22;27435;48.480;9.258;2023-06-26T09:34:03;29.50;52.30
41756;DHT22;27435;48.480;9.258;2023-06-26T09:36:29;29.60;51.80
41756;DHT22;27435;48.480;9.258;2023-06-26T09:39:07;29.60;51.50
41756;DHT22;27435;48.480;9.258;2023-06-26T09:41:36;29.60;52.10
41756;DHT22;27435;48.480;9.258;2023-06-26T09:44:04;29.80;51.70
41756;DHT22;27435;48.480;9.258;2023-06-26T09:46:30;29.90;51.20
41756;DHT22;27435;48.480;9.258;2023-06-26T09:49:07;29.90;51.20
41756;DHT22;27435;48.480;9.258;2023-06-26T09:51:34;30.00;50.40
41756;DHT22;27435;48.480;9.258;2023-06-26T09:54:00;30.10;50.70
41756;DHT22;27435;48.480;9.258;2023-06-26T09:56:27;30.00;50.70
41756;DHT22;27435;48.480;9.258;2023-06-26T09:58:55;29.80;49.50
41756;DHT22;27435;48.480;9.258;2023-06-26T10:01:26;29.50;50.00
41756;DHT22;27435;48.480;9.258;2023-06-26T10:03:53;29.80;50.40
41756;DHT22;27435;48.480;9.258;2023-06-26T10:06:42;30.10;49.90
41756;DHT22;27435;48.480;9.258;2023-06-26T10:09:06;30.20;50.00
41756;DHT22;27435;48.480;9.258;2023-06-26T10:11:40;30.30;50.00
41756;DHT22;27435;48.480;9.258;2023-06-26T10:14:07;30.50;49.20
41756;DHT22;27435;48.480;9.258;2023-06-26T10:16:35;30.30;49.80
41756;DHT22;27435;48.480;9.258;2023-06-26T10:19:05;30.10;50.60
41756;DHT22;27435;48.480;9.258;2023-06-26T10:21:34;30.30;50.10
41756;DHT22;27435;48.480;9.258;2023-06-26T10:24:00;30.80;49.90
41756;DHT22;27435;48.480;9.258;2023-06-26T10:26:28;31.20;49.30
41756;DHT22;27435;48.480;9.258;2023-06-26T10:28:55;31.10;49.60
41756;DHT22;27435;48.480;9.258;2023-06-26T10:31:24;31.00;49.70
41756;DHT22;27435;48.480;9.258;2023-06-26T10:33:52;31.20;50.00
41756;DHT22;27435;48.480;9.258;2023-06-26T10:36:20;30.80;49.50
41756;DHT22;27435;48.480;9.258;2023-06-26T10:38:54;31.00;49.00
41756;DHT22;27435;48.480;9.258;2023-06-26T10:41:22;31.20;48.90
41756;DHT22;27435;48.480;9.258;2023-06-26T10:44:05;31.10;49.60
41756;DHT22;27435;48.480;9.258;2023-06-26T10:46:52;31.40;48.60
41756;DHT22;27435;48.480;9.258;2023-06-26T10:49:19;31.80;47.70
41756;DHT22;27435;48.480;9.258;2023-06-26T10:51:49;32.40;46.90
41756;DHT22;27435;48.480;9.258;2023-06-26T10:54:16;32.70;46.40
41756;DHT22;27435;48.480;9.258;2023-06-26T10:56:49;32.00;46.90
41756;DHT22;27435;48.480;9.258;2023-06-26T10:59:21;31.40;47.30
41756;DHT22;27435;48.480;9.258;2023-06-26T11:01:55;31.50;47.40
41756;DHT22;27435;48.480;9.258;2023-06-26T11:04:50;31.60;47.20
41756;DHT22;27435;48.480;9.258;2023-06-26T11:07:25;31.80;46.60
41756;DHT22;27435;48.480;9.258;2023-06-26T11:12:41;31.10;48.00
41756;DHT22;27435;48.480;9.258;2023-06-26T11:15:12;30.90;48.20
41756;DHT22;27435;48.480;9.258;2023-06-26T11:17:39;30.90;48.40
41756;DHT22;27435;48.480;9.258;2023-06-26T11:20:10;30.90;48.20
41756;DHT22;27435;48.480;9.258;2023-06-26T11:22:40;31.00;48.80
41756;DHT22;27435;48.480;9.258;2023-06-26T11:25:07;30.60;50.10
41756;DHT22;27435;48.480;9.258;2023-06-26T11:30:02;30.30;51.60
41756;DHT22;27435;48.480;9.258;2023-06-26T11:32:28;30.10;52.20
41756;DHT22;27435;48.480;9.258;2023-06-26T11:34:54;30.00;53.00
41756;DHT22;27435;48.480;9.258;2023-06-26T11:37:21;30.10;52.90
41756;DHT22;27435;48.480;9.258;2023-06-26T11:39:47;30.20;52.60
41756;DHT22;27435;48.480;9.258;2023-06-26T11:42:12;30.30;52.40
41756;DHT22;27435;48.480;9.258;2023-06-26T11:44:42;30.30;51.70
41756;DHT22;27435;48.480;9.258;2023-06-26T11:47:18;30.20;52.20
41756;DHT22;27435;48.480;9.258;2023-06-26T11:50:16;30.40;52.50
41756;DHT22;27435;48.480;9.258;2023-06-26T11:53:05;30.50;52.10
41756;DHT22;27435;48.480;9.258;2023-06-26T11:55:41;30.60;52.80
41756;DHT22;27435;48.480;9.258;2023-06-26T11:58:08;30.50;52.80
41756;DHT22;27435;48.480;9.258;2023-06-26T12:00:34;30.60;53.10
41756;DHT22;27435;48.480;9.258;2023-06-26T12:02:59;30.60;52.80
41756;DHT22;27435;48.480;9.258;2023-06-26T12:05:26;30.90;52.60
41756;DHT22;27435;48.480;9.258;2023-06-26T12:07:52;30.80;52.60
41756;DHT22;27435;48.480;9.258;2023-06-26T12:10:19;31.10;52.00
41756;DHT22;27435;48.480;9.258;2023-06-26T12:12:45;31.10;52.20
41756;DHT22;27435;48.480;9.258;2023-06-26T12:15:15;31.20;52.50
41756;DHT22;27435;48.480;9.258;2023-06-26T12:17:41;30.70;53.40
41756;DHT22;27435;48.480;9.258;2023-06-26T12:20:23;31.10;53.10
41756;DHT22;27435;48.480;9.258;2023-06-26T12:22:51;31.00;53.00
41756;DHT22;27435;48.480;9.258;2023-06-26T12:25:22;30.90;53.30
41756;DHT22;27435;48.480;9.258;2023-06-26T12:27:48;31.30;52.90
41756;DHT22;27435;48.480;9.258;2023-06-26T12:30:15;30.80;53.10
41756;DHT22;27435;48.480;9.258;2023-06-26T12:32:44;30.60;53.70
41756;DHT22;27435;48.480;9.258;2023-06-26T12:35:11;30.80;53.20
41756;DHT22;27435;48.480;9.258;2023-06-26T12:37:37;30.90;53.60
41756;DHT22;27435;48.480;9.258;2023-06-26T12:40:16;30.30;53.80
41756;DHT22;27435;48.480;9.258;2023-06-26T12:42:43;30.20;54.80
41756;DHT22;27435;48.480;9.258;2023-06-26T12:45:13;30.60;54.00
41756;DHT22;27435;48.480;9.258;2023-06-26T12:47:39;30.60;54.00
41756;DHT22;27435;48.480;9.258;2023-06-26T12:50:07;30.70;53.90
41756;DHT22;27435;48.480;9.258;2023-06-26T12:52:33;30.60;53.70
41756;DHT22;27435;48.480;9.258;2023-06-26T12:54:59;30.90;53.50
41756;DHT22;27435;48.480;9.258;2023-06-26T12:57:25;30.60;53.10
41756;DHT22;27435;48.480;9.258;2023-06-26T12:59:51;30.50;54.10
41756;DHT22;27435;48.480;9.258;2023-06-26T13:02:17;30.90;53.00
41756;DHT22;27435;48.480;9.258;2023-06-26T13:04:44;30.90;53.00
41756;DHT22;27435;48.480;9.258;2023-06-26T13:07:11;31.00;53.00
41756;DHT22;27435;48.480;9.258;2023-06-26T13:09:37;31.00;53.50
41756;DHT22;27435;48.480;9.258;2023-06-26T13:12:05;31.20;53.30
41756;DHT22;27435;48.480;9.258;2023-06-26T13:14:31;31.60;52.90
41756;DHT22;27435;48.480;9.258;2023-06-26T13:16:57;31.70;52.10
41756;DHT22;27435;48.480;9.258;2023-06-26T13:19:23;31.20;52.80
41756;DHT22;27435;48.480;9.258;2023-06-26T13:21:48;30.80;53.80
41756;DHT22;27435;48.480;9.258;2023-06-26T13:24:14;31.40;53.20
41756;DHT22;27435;48.480;9.258;2023-06-26T13:26:40;31.60;52.60
41756;DHT22;27435;48.480;9.258;2023-06-26T13:29:06;31.70;52.20
41756;DHT22;27435;48.480;9.258;2023-06-26T13:31:32;31.60;52.50
41756;DHT22;27435;48.480;9.258;2023-06-26T13:33:58;31.90;52.40
41756;DHT22;27435;48.480;9.258;2023-06-26T13:36:24;32.00;52.40
41756;DHT22;27435;48.480;9.258;2023-06-26T13:38:50;31.90;52.40
41756;DHT22;27435;48.480;9.258;2023-06-26T13:41:24;31.70;53.60
41756;DHT22;27435;48.480;9.258;2023-06-26T13:43:50;31.50;53.60
41756;DHT22;27435;48.480;9.258;2023-06-26T13:46:16;31.60;54.00
41756;DHT22;27435;48.480;9.258;2023-06-26T13:48:42;32.00;52.40
41756;DHT22;27435;48.480;9.258;2023-06-26T13:51:08;31.80;53.00
41756;DHT22;27435;48.480;9.258;2023-06-26T13:53:33;32.00;52.90
41756;DHT22;27435;48.480;9.258;2023-06-26T13:55:59;32.20;53.40
41756;DHT22;27435;48.480;9.258;2023-06-26T13:58:25;32.10;52.90
41756;DHT22;27435;48.480;9.258;2023-06-26T14:00:52;32.10;52.70
41756;DHT22;27435;48.480;9.258;2023-06-26T14:03:19;32.60;53.00
41756;DHT22;27435;48.480;9.258;2023-06-26T14:05:44;31.20;54.70
41756;DHT22;27435;48.480;9.258;2023-06-26T14:08:10;31.30;54.60
41756;DHT22;27435;48.480;9.258;2023-06-26T14:10:36;32.00;52.90
41756;DHT22;27435;48.480;9.258;2023-06-26T14:13:03;32.20;52.90
41756;DHT22;27435;48.480;9.258;2023-06-26T14:15:29;32.00;52.70
41756;DHT22;27435;48.480;9.258;2023-06-26T14:17:55;31.80;53.10
41756;DHT22;27435;48.480;9.258;2023-06-26T14:20:21;31.90;53.00
41756;DHT22;27435;48.480;9.258;2023-06-26T14:22:48;31.40;53.40
41756;DHT22;27435;48.480;9.258;2023-06-26T14:25:14;30.80;54.80
41756;DHT22;27435;48.480;9.258;2023-06-26T14:27:40;31.10;54.60
41756;DHT22;27435;48.480;9.258;2023-06-26T14:30:07;30.70;54.80
41756;DHT22;27435;48.480;9.258;2023-06-26T14:32:33;31.00;54.50
41756;DHT22;27435;48.480;9.258;2023-06-26T14:34:59;31.70;53.00
41756;DHT22;27435;48.480;9.258;2023-06-26T14:37:30;31.90;52.70
41756;DHT22;27435;48.480;9.258;2023-06-26T14:39:56;31.90;52.40
41756;DHT22;27435;48.480;9.258;2023-06-26T14:42:21;32.40;51.30
41756;DHT22;27435;48.480;9.258;2023-06-26T14:44:47;32.20;51.40
41756;DHT22;27435;48.480;9.258;2023-06-26T14:47:19;31.20;52.90
41756;DHT22;27435;48.480;9.258;2023-06-26T14:49:44;31.40;52.70
41756;DHT22;27435;48.480;9.258;2023-06-26T14:52:10;31.40;52.70
41756;DHT22;27435;48.480;9.258;2023-06-26T14:54:36;31.90;52.10
41756;DHT22;27435;48.480;9.258;2023-06-26T14:57:05;31.20;52.60
41756;DHT22;27435;48.480;9.258;2023-06-26T14:59:31;31.20;52.10
41756;DHT22;27435;48.480;9.258;2023-06-26T15:01:56;31.30;52.30
41756;DHT22;27435;48.480;9.258;2023-06-26T15:04:22;31.60;51.30
41756;DHT22;27435;48.480;9.258;2023-06-26T15:06:48;31.50;51.00
41756;DHT22;27435;48.480;9.258;2023-06-26T15:09:14;31.40;51.20
41756;DHT22;27435;48.480;9.258;2023-06-26T15:11:39;31.60;51.20
41756;DHT22;27435;48.480;9.258;2023-06-26T15:14:05;31.40;51.20
41756;DHT22;27435;48.480;9.258;2023-06-26T15:16:31;31.10;51.70
41756;DHT22;27435;48.480;9.258;2023-06-26T15:18:59;31.70;51.00
41756;DHT22;27435;48.480;9.258;2023-06-26T15:21:26;31.40;51.20
41756;DHT22;27435;48.480;9.258;2023-06-26T15:23:52;31.50;50.80
41756;DHT22;27435;48.480;9.258;2023-06-26T15:26:17;31.70;50.40
41756;DHT22;27435;48.480;9.258;2023-06-26T15:28:43;31.80;50.40
41756;DHT22;27435;48.480;9.258;2023-06-26T15:31:09;31.70;49.90
41756;DHT22;27435;48.480;9.258;2023-06-26T15:33:34;31.80;49.40
41756;DHT22;27435;48.480;9.258;2023-06-26T15:36:00;31.70;49.80
41756;DHT22;27435;48.480;9.258;2023-06-26T15:38:28;31.60;48.90
41756;DHT22;27435;48.480;9.258;2023-06-26T15:40:54;30.80;50.50
41756;DHT22;27435;48.480;9.258;2023-06-26T15:43:20;30.50;51.80
41756;DHT22;27435;48.480;9.258;2023-06-26T15:45:46;30.90;51.00